Time;durP1;ratioP1;P1;durP2;ratioP2;P2;SDS_P1;SDS_P2;PMS_P1;PMS_P2;Temp;Humidity;BMP_temperature;BMP_pressure;BME280_temperature;BME280_humidity;BME280_pressure;Samples;Min_cycle;Max_cycle;Signal;HPM_P1;HPM_P2
2023/08/05 00:01:55;;;;;;;4.27;3.77;;;17.10;99.90;;;;;;5018042;28;20484;-82
2023/08/05 00:04:22;;;;;;;7.63;3.90;;;17.10;99.90;;;;;;5034962;28;20463;-83
2023/08/05 00:06:49;;;;;;;4.20;3.77;;;17.10;99.90;;;;;;5029748;28;20476;-82
2023/08/05 00:09:17;;;;;;;5.50;4.00;;;17.00;99.90;;;;;;5015240;28;20947;-81
2023/08/05 00:11:44;;;;;;;7.00;4.17;;;17.10;99.90;;;;;;5015051;28;20500;-83
2023/08/05 00:14:10;;;;;;;5.67;4.10;;;17.10;99.90;;;;;;5027209;28;20456;-80
2023/08/05 00:16:37;;;;;;;5.00;3.83;;;17.10;99.90;;;;;;5025353;28;20550;-82
2023/08/05 00:19:04;;;;;;;5.67;3.87;;;17.10;99.90;;;;;;5015745;28;20453;-83
2023/08/05 00:21:31;;;;;;;5.80;3.70;;;17.10;99.90;;;;;;5015213;28;20464;-83
2023/08/05 00:23:57;;;;;;;5.73;3.47;;;17.10;99.90;;;;;;5030195;28;20461;-81
2023/08/05 00:26:25;;;;;;;6.13;4.20;;;17.10;99.90;;;;;;5032086;28;20996;-81
2023/08/05 00:28:52;;;;;;;6.10;4.10;;;17.10;99.90;;;;;;5033549;28;20452;-81
2023/08/05 00:31:19;;;;;;;3.83;3.23;;;17.10;99.90;;;;;;5034914;28;20455;-83
2023/08/05 00:33:46;;;;;;;5.13;4.07;;;17.10;99.90;;;;;;5028141;28;20962;-81
2023/08/05 00:36:12;;;;;;;5.10;3.40;;;17.00;99.90;;;;;;5015041;28;20833;-81
2023/08/05 00:38:39;;;;;;;4.90;3.50;;;17.00;99.90;;;;;;5018811;28;20466;-81
2023/08/05 00:41:06;;;;;;;5.47;4.03;;;17.00;99.90;;;;;;5024409;28;20457;-81
2023/08/05 00:43:34;;;;;;;5.50;3.80;;;17.00;99.90;;;;;;5026412;28;20471;-83
2023/08/05 00:46:02;;;;;;;4.73;3.60;;;17.00;99.90;;;;;;5038574;28;20456;-79
2023/08/05 00:48:29;;;;;;;6.77;4.37;;;17.00;99.90;;;;;;5035901;28;20986;-80
2023/08/05 00:50:56;;;;;;;6.50;3.90;;;17.00;99.90;;;;;;5023563;28;20455;-82
2023/08/05 00:53:23;;;;;;;7.80;4.17;;;17.00;99.90;;;;;;5034593;28;20475;-82
2023/08/05 00:55:51;;;;;;;4.80;3.70;;;17.00;99.90;;;;;;5038346;28;20933;-81
2023/08/05 00:58:20;;;;;;;4.73;3.30;;;16.90;99.90;;;;;;5037206;28;20454;-83
2023/08/05 01:00:48;;;;;;;6.20;4.17;;;17.00;99.90;;;;;;5018596;28;20451;-82
2023/08/05 01:03:15;;;;;;;4.47;3.93;;;17.00;99.90;;;;;;5018451;28;20490;-82
2023/08/05 01:05:43;;;;;;;5.53;4.07;;;17.00;99.90;;;;;;5018447;28;20470;-81
2023/08/05 01:08:11;;;;;;;7.67;3.73;;;17.00;99.90;;;;;;5031029;28;20489;-81
2023/08/05 01:10:38;;;;;;;5.07;3.60;;;17.00;99.90;;;;;;5038337;28;20474;-83
2023/08/05 01:13:05;;;;;;;6.83;4.00;;;17.00;99.90;;;;;;5032330;28;20507;-83
2023/08/05 01:15:32;;;;;;;5.53;4.03;;;17.00;99.90;;;;;;5018635;28;20462;-81
2023/08/05 01:18:03;;;;;;;8.97;4.40;;;17.00;99.90;;;;;;5019322;28;20452;-81
2023/08/05 01:20:35;;;;;;;5.70;4.50;;;17.00;99.90;;;;;;5031141;28;20453;-80
2023/08/05 01:23:13;;;;;;;5.50;4.20;;;17.10;99.90;;;;;;5023557;28;21015;-82
2023/08/05 01:25:43;;;;;;;6.50;4.00;;;17.00;99.90;;;;;;5038835;28;20455;-83
2023/08/05 01:28:10;;;;;;;5.23;4.73;;;17.00;99.90;;;;;;5039349;28;20493;-81
2023/08/05 01:30:38;;;;;;;7.37;4.73;;;17.00;99.90;;;;;;5021027;28;20470;-82
2023/08/05 01:33:05;;;;;;;6.13;4.30;;;17.00;99.90;;;;;;5020468;28;20480;-82
2023/08/05 01:35:32;;;;;;;5.40;3.90;;;17.00;99.90;;;;;;5028341;28;20534;-83
2023/08/05 01:37:59;;;;;;;6.70;4.20;;;17.00;99.90;;;;;;5040179;28;20453;-82
2023/08/05 01:40:28;;;;;;;5.30;3.97;;;17.00;99.90;;;;;;5037866;28;20548;-83
2023/08/05 01:42:56;;;;;;;4.90;4.17;;;17.00;99.90;;;;;;5040059;28;20483;-82
2023/08/05 01:45:23;;;;;;;5.97;4.50;;;16.90;99.90;;;;;;5028445;28;20457;-80
2023/08/05 01:47:50;;;;;;;4.90;4.33;;;17.00;99.90;;;;;;5028605;28;20884;-82
2023/08/05 01:50:17;;;;;;;8.30;4.20;;;16.90;99.90;;;;;;5030005;28;20455;-83
2023/08/05 01:52:44;;;;;;;4.90;3.80;;;16.90;99.90;;;;;;5035911;28;20859;-81
2023/08/05 01:55:11;;;;;;;4.40;3.63;;;16.90;99.90;;;;;;5034151;28;20536;-82
2023/08/05 01:57:37;;;;;;;6.17;4.60;;;16.90;99.90;;;;;;5037116;28;20534;-82
2023/08/05 02:00:07;;;;;;;5.97;4.57;;;17.00;99.90;;;;;;5022990;28;20453;-83
2023/08/05 02:02:34;;;;;;;5.63;4.03;;;16.90;99.90;;;;;;5017448;28;20568;-82
2023/08/05 02:05:01;;;;;;;6.43;4.60;;;17.00;99.90;;;;;;5018293;28;20454;-81
2023/08/05 02:07:27;;;;;;;7.53;3.90;;;16.90;99.90;;;;;;5036049;28;20487;-83
2023/08/05 02:09:54;;;;;;;7.10;4.37;;;17.00;99.90;;;;;;5035819;28;20454;-81
2023/08/05 02:12:21;;;;;;;6.60;4.60;;;16.90;99.90;;;;;;5037688;28;20477;-83
2023/08/05 02:14:48;;;;;;;6.27;4.13;;;16.90;99.90;;;;;;5028278;28;20457;-81
2023/08/05 02:17:16;;;;;;;6.30;4.27;;;16.90;99.90;;;;;;5036832;28;20820;-81
2023/08/05 02:19:43;;;;;;;6.60;4.40;;;16.90;99.90;;;;;;5026048;28;20467;-83
2023/08/05 02:22:09;;;;;;;4.93;4.10;;;16.90;99.90;;;;;;5019357;28;20478;-83
2023/08/05 02:24:36;;;;;;;4.73;4.07;;;16.90;99.90;;;;;;5028806;28;20453;-82
2023/08/05 02:27:03;;;;;;;4.73;4.20;;;16.90;99.90;;;;;;5015560;28;20906;-81
2023/08/05 02:29:30;;;;;;;8.90;4.57;;;16.90;99.90;;;;;;5025140;28;20457;-82
2023/08/05 02:31:57;;;;;;;5.40;4.40;;;16.90;99.90;;;;;;5035897;28;20472;-80
2023/08/05 02:34:25;;;;;;;6.00;4.47;;;16.90;99.90;;;;;;5036116;28;20894;-81
2023/08/05 02:36:52;;;;;;;5.30;4.20;;;16.80;99.90;;;;;;5035137;28;20450;-83
2023/08/05 02:39:18;;;;;;;8.80;4.40;;;16.80;99.90;;;;;;5034537;28;20465;-82
2023/08/05 02:41:47;;;;;;;5.10;4.00;;;16.80;99.90;;;;;;5035525;28;20495;-81
2023/08/05 02:44:14;;;;;;;6.00;4.27;;;16.80;99.90;;;;;;5027077;28;20499;-83
2023/08/05 02:46:41;;;;;;;6.50;4.80;;;16.80;99.90;;;;;;5016874;28;20464;-80
2023/08/05 02:49:08;;;;;;;5.40;4.37;;;16.80;99.90;;;;;;5021694;28;20447;-80
2023/08/05 02:51:36;;;;;;;5.80;4.50;;;16.80;99.90;;;;;;5025008;28;20476;-82
2023/08/05 02:54:04;;;;;;;7.40;4.80;;;16.80;99.90;;;;;;5016610;28;20448;-83
2023/08/05 02:56:33;;;;;;;6.20;5.00;;;16.80;99.90;;;;;;5028106;28;20495;-83
2023/08/05 02:59:00;;;;;;;6.30;4.23;;;16.80;99.90;;;;;;5030888;28;20449;-79
2023/08/05 03:01:27;;;;;;;4.60;4.20;;;16.80;99.90;;;;;;5015919;28;20454;-83
2023/08/05 03:03:53;;;;;;;6.93;4.70;;;16.80;99.90;;;;;;5016888;28;20460;-83
2023/08/05 03:06:20;;;;;;;5.23;4.10;;;16.80;99.90;;;;;;5017378;28;20830;-80
2023/08/05 03:08:50;;;;;;;5.03;4.20;;;16.80;99.90;;;;;;5025545;28;20590;-83
2023/08/05 03:11:17;;;;;;;5.23;4.73;;;16.80;99.90;;;;;;5035293;28;20981;-84
2023/08/05 03:13:44;;;;;;;4.77;4.23;;;16.80;99.90;;;;;;5021613;28;20526;-82
2023/08/05 03:16:11;;;;;;;4.27;3.67;;;16.80;99.90;;;;;;5028321;28;20458;-83
2023/08/05 03:18:38;;;;;;;5.00;3.97;;;16.70;99.90;;;;;;5028467;28;20461;-83
2023/08/05 03:21:05;;;;;;;6.43;4.33;;;16.70;99.90;;;;;;5017943;28;20522;-80
2023/08/05 03:23:32;;;;;;;5.97;4.30;;;16.80;99.90;;;;;;5016536;28;20474;-83
2023/08/05 03:26:00;;;;;;;6.00;4.10;;;16.80;99.90;;;;;;5016763;28;20550;-81
2023/08/05 03:28:27;;;;;;;6.20;4.90;;;16.80;99.90;;;;;;5020567;28;20503;-81
2023/08/05 03:30:54;;;;;;;4.90;4.40;;;16.80;99.90;;;;;;5026117;28;20452;-82
2023/08/05 03:33:21;;;;;;;6.10;3.90;;;16.80;99.90;;;;;;5017292;28;20476;-83
2023/08/05 03:35:47;;;;;;;4.63;4.23;;;16.70;99.90;;;;;;5034278;28;20450;-81
2023/08/05 03:38:15;;;;;;;6.97;4.13;;;16.80;99.90;;;;;;5036072;28;20840;-81
2023/08/05 03:40:41;;;;;;;5.70;4.57;;;16.80;99.90;;;;;;5036703;28;20495;-80
2023/08/05 03:43:10;;;;;;;5.93;4.07;;;16.70;99.90;;;;;;5037230;28;20482;-79
2023/08/05 03:45:36;;;;;;;9.80;5.07;;;16.70;99.90;;;;;;5033537;28;20454;-81
2023/08/05 03:48:03;;;;;;;7.50;4.90;;;16.80;99.90;;;;;;5022759;28;20482;-81
2023/08/05 03:50:30;;;;;;;5.87;4.93;;;16.70;99.90;;;;;;5036759;28;20464;-81
2023/08/05 03:52:57;;;;;;;6.37;4.33;;;16.70;99.90;;;;;;5040155;28;20573;-78
2023/08/05 03:55:24;;;;;;;7.03;4.40;;;16.70;99.90;;;;;;5042218;28;20492;-81
2023/08/05 03:57:51;;;;;;;5.20;4.70;;;16.70;99.90;;;;;;5033699;28;20455;-81
2023/08/05 04:00:19;;;;;;;7.10;4.73;;;16.70;99.90;;;;;;5015765;28;20463;-80
2023/08/05 04:02:47;;;;;;;6.33;4.97;;;16.70;99.90;;;;;;5014967;28;20485;-81
2023/08/05 04:05:14;;;;;;;7.13;5.20;;;16.70;99.90;;;;;;5014401;28;20453;-81
2023/08/05 04:07:40;;;;;;;5.43;4.03;;;16.70;99.90;;;;;;5016920;28;20488;-80
2023/08/05 04:10:08;;;;;;;7.80;4.70;;;16.70;99.90;;;;;;5015166;28;20463;-79
2023/08/05 04:12:35;;;;;;;6.73;4.30;;;16.70;99.90;;;;;;5014983;28;20988;-79
2023/08/05 04:15:03;;;;;;;4.80;4.37;;;16.60;99.90;;;;;;5015339;28;20510;-82
2023/08/05 04:17:31;;;;;;;9.50;5.20;;;16.70;99.90;;;;;;5021439;28;20447;-81
2023/08/05 04:20:00;;;;;;;6.03;5.43;;;16.70;99.90;;;;;;5017289;28;20898;-79
2023/08/05 04:22:27;;;;;;;7.03;3.97;;;16.70;99.90;;;;;;5013405;28;20565;-81
2023/08/05 04:24:53;;;;;;;5.70;4.40;;;16.60;99.90;;;;;;5015056;28;20538;-79
2023/08/05 04:27:21;;;;;;;8.00;4.60;;;16.60;99.90;;;;;;5032900;28;20451;-83
2023/08/05 04:29:48;;;;;;;4.37;3.50;;;16.70;99.90;;;;;;5019953;28;20537;-80
2023/08/05 04:32:15;;;;;;;5.03;4.50;;;16.60;99.90;;;;;;5030800;28;21066;-79
2023/08/05 04:34:45;;;;;;;7.53;3.70;;;16.70;99.90;;;;;;5015423;28;20466;-79
2023/08/05 04:37:16;;;;;;;6.03;4.30;;;16.60;99.90;;;;;;5013436;28;20538;-83
2023/08/05 04:39:44;;;;;;;5.43;4.27;;;16.60;99.90;;;;;;5014125;28;20455;-81
2023/08/05 04:42:11;;;;;;;5.47;4.97;;;16.60;99.90;;;;;;5033936;28;20478;-80
2023/08/05 04:44:41;;;;;;;8.07;4.63;;;16.60;99.90;;;;;;5033806;28;20453;-81
2023/08/05 04:47:08;;;;;;;5.80;4.90;;;16.70;99.90;;;;;;5031968;28;20537;-83
2023/08/05 04:49:35;;;;;;;5.37;4.40;;;16.60;99.90;;;;;;5033405;28;20488;-82
2023/08/05 04:52:06;;;;;;;5.10;4.60;;;16.70;99.90;;;;;;5021995;28;21025;-82
2023/08/05 04:54:36;;;;;;;5.73;4.77;;;16.60;99.90;;;;;;5034153;28;20517;-82
2023/08/05 04:57:05;;;;;;;7.33;5.20;;;16.60;99.90;;;;;;5033815;28;21182;-82
2023/08/05 04:59:33;;;;;;;7.50;5.77;;;16.60;99.90;;;;;;5020746;28;20464;-81
2023/08/05 05:02:00;;;;;;;6.00;5.33;;;16.70;99.90;;;;;;5056520;22;20548;-84
2023/08/05 05:04:29;;;;;;;7.20;4.90;;;16.70;99.90;;;;;;5032876;28;20482;-82
2023/08/05 05:06:56;;;;;;;6.10;5.00;;;16.70;99.90;;;;;;5026286;28;20446;-83
2023/08/05 05:09:24;;;;;;;5.77;4.63;;;16.70;99.90;;;;;;5032662;28;20568;-83
2023/08/05 05:11:54;;;;;;;5.10;4.37;;;16.70;99.90;;;;;;5032040;28;20467;-82
2023/08/05 05:14:21;;;;;;;8.13;5.10;;;16.70;99.90;;;;;;5014114;28;20460;-83
2023/08/05 05:16:48;;;;;;;6.80;5.47;;;16.70;99.90;;;;;;5013463;28;20461;-84
2023/08/05 05:19:15;;;;;;;6.20;5.60;;;16.70;99.90;;;;;;5004249;28;20500;-83
2023/08/05 05:21:41;;;;;;;8.00;6.10;;;16.70;99.90;;;;;;5015957;28;20486;-82
2023/08/05 05:24:08;;;;;;;8.70;5.10;;;16.80;99.90;;;;;;5014314;28;20477;-83
2023/08/05 05:26:36;;;;;;;7.97;5.23;;;16.80;99.90;;;;;;5014344;28;20988;-81
2023/08/05 05:29:03;;;;;;;5.80;4.50;;;16.80;99.90;;;;;;5013476;28;20565;-83
2023/08/05 05:31:30;;;;;;;5.80;4.80;;;16.80;99.90;;;;;;5023717;28;20459;-81
2023/08/05 05:33:57;;;;;;;8.23;5.23;;;16.90;99.90;;;;;;5023449;28;20479;-82
2023/08/05 05:36:24;;;;;;;8.83;6.43;;;16.90;99.90;;;;;;5020910;28;20449;-82
2023/08/05 05:38:51;;;;;;;11.27;7.00;;;17.00;99.90;;;;;;5017099;28;20457;-83
2023/08/05 05:41:17;;;;;;;9.00;7.30;;;17.00;99.90;;;;;;5021350;28;20912;-82
2023/08/05 05:43:45;;;;;;;8.80;7.93;;;17.00;99.90;;;;;;5010203;28;20572;-80
2023/08/05 05:46:14;;;;;;;8.80;7.90;;;17.10;99.90;;;;;;5019209;28;20559;-80
2023/08/05 05:48:41;;;;;;;13.30;9.60;;;17.10;99.90;;;;;;5019714;28;20556;-80
2023/08/05 05:51:08;;;;;;;9.70;8.60;;;17.20;99.90;;;;;;5020509;28;20498;-81
2023/08/05 05:53:35;;;;;;;10.87;8.93;;;17.20;99.90;;;;;;5019489;28;20470;-80
2023/08/05 05:56:02;;;;;;;12.43;8.87;;;17.30;99.90;;;;;;5019672;28;20450;-81
2023/08/05 05:58:29;;;;;;;10.87;8.83;;;17.30;99.90;;;;;;5016653;28;20463;-79
2023/08/05 06:00:58;;;;;;;16.03;8.90;;;17.30;99.90;;;;;;5010974;28;20461;-81
2023/08/05 06:03:25;;;;;;;9.60;8.30;;;17.40;99.90;;;;;;5018585;28;20846;-80
2023/08/05 06:05:52;;;;;;;11.20;8.47;;;17.40;99.90;;;;;;5018616;28;20453;-83
2023/08/05 06:08:19;;;;;;;8.50;6.90;;;17.40;99.90;;;;;;5019875;28;20496;-81
2023/08/05 06:10:46;;;;;;;15.13;7.50;;;17.40;99.90;;;;;;5019122;28;20453;-81
2023/08/05 06:13:13;;;;;;;12.03;8.20;;;17.50;99.90;;;;;;5019524;28;20480;-82
2023/08/05 06:15:41;;;;;;;8.80;7.33;;;17.60;99.90;;;;;;5019552;28;20444;-80
2023/08/05 06:18:10;;;;;;;7.20;6.23;;;17.60;99.90;;;;;;5019936;28;20960;-82
2023/08/05 06:20:37;;;;;;;9.13;6.73;;;17.70;99.90;;;;;;5019902;28;20450;-82
2023/08/05 06:23:03;;;;;;;9.00;6.20;;;17.80;99.90;;;;;;5019179;28;20944;-81
2023/08/05 06:25:30;;;;;;;8.33;6.13;;;17.90;99.90;;;;;;5018817;28;20531;-80
2023/08/05 06:27:57;;;;;;;6.47;5.30;;;18.00;99.90;;;;;;5018707;28;20969;-81
2023/08/05 06:30:24;;;;;;;6.10;5.33;;;18.00;99.90;;;;;;5018102;28;20556;-80
2023/08/05 06:32:51;;;;;;;8.00;5.57;;;18.20;99.90;;;;;;5018003;28;20940;-80
2023/08/05 06:35:19;;;;;;;11.03;5.10;;;18.20;99.90;;;;;;5018165;28;20871;-81
2023/08/05 06:37:46;;;;;;;7.20;5.80;;;18.30;99.90;;;;;;5017708;28;20456;-81
2023/08/05 06:40:13;;;;;;;8.90;4.50;;;18.30;99.90;;;;;;5017149;28;20503;-80
2023/08/05 06:42:39;;;;;;;8.77;5.10;;;18.30;99.90;;;;;;5017841;28;20512;-81
2023/08/05 06:45:08;;;;;;;7.47;4.80;;;18.40;99.90;;;;;;5017809;28;20460;-79
2023/08/05 06:47:35;;;;;;;7.03;4.13;;;18.30;99.90;;;;;;5017244;28;20486;-80
2023/08/05 06:50:04;;;;;;;7.47;4.90;;;18.40;99.90;;;;;;5015789;28;20600;-80
2023/08/05 06:52:33;;;;;;;7.53;4.93;;;18.40;99.90;;;;;;5011761;28;20484;-82
2023/08/05 06:55:02;;;;;;;6.70;4.63;;;18.40;99.90;;;;;;4997716;28;20460;-80
2023/08/05 06:57:29;;;;;;;8.87;5.10;;;18.50;99.90;;;;;;4997907;28;20482;-80
2023/08/05 06:59:55;;;;;;;10.00;5.00;;;18.50;99.90;;;;;;4997770;28;21002;-79
2023/08/05 07:02:22;;;;;;;5.00;3.80;;;18.50;99.90;;;;;;4997650;28;20513;-83
2023/08/05 07:04:49;;;;;;;5.10;4.27;;;18.60;99.90;;;;;;4997792;28;20454;-81
2023/08/05 07:07:16;;;;;;;6.53;4.37;;;18.50;99.90;;;;;;4998036;28;20989;-80
2023/08/05 07:09:44;;;;;;;6.00;4.60;;;18.60;99.90;;;;;;4997638;28;20529;-81
2023/08/05 07:12:11;;;;;;;7.83;4.33;;;18.50;99.90;;;;;;4997897;28;20489;-82
2023/08/05 07:14:38;;;;;;;12.70;4.30;;;18.60;99.90;;;;;;4997070;28;20455;-80
2023/08/05 07:17:05;;;;;;;9.50;3.90;;;18.60;99.90;;;;;;4997958;28;20462;-82
2023/08/05 07:19:32;;;;;;;7.90;4.87;;;18.60;99.90;;;;;;5009495;28;20463;-81
2023/08/05 07:21:59;;;;;;;9.83;5.80;;;18.50;99.90;;;;;;5017170;28;20456;-81
2023/08/05 07:24:26;;;;;;;7.07;4.53;;;18.50;99.90;;;;;;5017344;28;20496;-82
2023/08/05 07:26:54;;;;;;;6.03;5.00;;;18.50;99.90;;;;;;5016865;28;20481;-83
2023/08/05 07:29:21;;;;;;;6.40;4.93;;;18.50;99.90;;;;;;5017272;28;20584;-81
2023/08/05 07:31:48;;;;;;;7.60;6.03;;;18.70;99.90;;;;;;5017888;28;20444;-79
2023/08/05 07:34:15;;;;;;;9.27;6.50;;;18.70;99.90;;;;;;5014612;28;20807;-80
2023/08/05 07:36:43;;;;;;;9.07;6.43;;;18.60;99.90;;;;;;5013881;28;20472;-80
2023/08/05 07:39:10;;;;;;;9.60;7.07;;;18.60;99.90;;;;;;5014258;28;20446;-82
2023/08/05 07:41:37;;;;;;;9.73;6.53;;;18.60;99.90;;;;;;5014285;28;20457;-80
2023/08/05 07:44:07;;;;;;;13.43;8.17;;;18.60;99.90;;;;;;5014639;28;20524;-81
2023/08/05 07:46:37;;;;;;;10.03;6.97;;;18.60;99.90;;;;;;5014375;28;21043;-82
2023/08/05 07:49:03;;;;;;;11.53;9.37;;;18.70;99.90;;;;;;5014769;28;20489;-80
2023/08/05 07:51:31;;;;;;;13.27;11.33;;;18.70;99.90;;;;;;5014208;28;20456;-80
2023/08/05 07:53:57;;;;;;;19.57;10.57;;;18.80;99.90;;;;;;5014871;28;20974;-80
2023/08/05 07:56:25;;;;;;;12.03;9.50;;;18.70;99.90;;;;;;5013916;28;20519;-82
2023/08/05 07:58:52;;;;;;;14.87;11.77;;;18.70;99.90;;;;;;5015260;28;20504;-81
2023/08/05 08:01:22;;;;;;;14.37;10.80;;;18.50;99.90;;;;;;5014662;28;20456;-81
2023/08/05 08:03:51;;;;;;;15.23;12.03;;;18.50;99.90;;;;;;5017327;28;20521;-82
2023/08/05 08:06:19;;;;;;;16.60;13.17;;;18.50;99.90;;;;;;5017121;28;20507;-79
2023/08/05 08:08:46;;;;;;;15.33;12.90;;;18.50;99.90;;;;;;5018147;28;20568;-81
2023/08/05 08:11:14;;;;;;;15.40;11.67;;;18.60;99.90;;;;;;5016949;28;20485;-82
2023/08/05 08:13:41;;;;;;;15.50;12.30;;;18.60;99.90;;;;;;5016910;28;20878;-80
2023/08/05 08:16:09;;;;;;;18.27;14.70;;;18.70;99.90;;;;;;5017695;28;20453;-80
2023/08/05 08:18:37;;;;;;;21.93;15.20;;;18.70;99.90;;;;;;5015952;28;20552;-82
2023/08/05 08:21:06;;;;;;;15.83;14.23;;;18.70;99.90;;;;;;5017786;28;21025;-81
2023/08/05 08:23:33;;;;;;;17.63;13.07;;;18.70;99.90;;;;;;5016898;28;20576;-80
2023/08/05 08:26:00;;;;;;;19.13;15.50;;;18.70;99.90;;;;;;5016282;28;20541;-81
2023/08/05 08:28:27;;;;;;;17.27;13.27;;;18.80;99.90;;;;;;5016315;28;20450;-82
2023/08/05 08:30:55;;;;;;;16.70;13.53;;;18.90;99.90;;;;;;5016252;28;20492;-82
2023/08/05 08:33:22;;;;;;;15.10;12.90;;;18.90;99.90;;;;;;5016225;28;20565;-82
2023/08/05 08:35:50;;;;;;;14.87;12.30;;;19.00;99.90;;;;;;5016375;28;20464;-81
2023/08/05 08:38:17;;;;;;;14.23;11.70;;;19.20;99.90;;;;;;5016740;28;20452;-81
2023/08/05 08:40:48;;;;;;;13.30;11.90;;;19.20;99.90;;;;;;5016028;28;20462;-80
2023/08/05 08:43:17;;;;;;;12.40;10.33;;;19.20;70.10;;;;;;5016198;28;20465;-80
2023/08/05 08:45:46;;;;;;;12.47;10.67;;;19.30;91.60;;;;;;5016101;28;20509;-81
2023/08/05 08:48:13;;;;;;;16.20;9.60;;;19.20;53.80;;;;;;5016632;28;20468;-82
2023/08/05 08:50:40;;;;;;;9.90;8.90;;;19.20;26.40;;;;;;5016729;28;20493;-80
2023/08/05 08:53:11;;;;;;;11.70;9.47;;;19.20;62.20;;;;;;5016487;28;20528;-82
2023/08/05 08:55:38;;;;;;;9.40;8.50;;;19.40;92.40;;;;;;5016856;28;20449;-81
2023/08/05 08:58:04;;;;;;;11.50;9.20;;;19.70;88.90;;;;;;5015316;28;20946;-81
2023/08/05 09:00:32;;;;;;;18.13;9.53;;;20.00;99.90;;;;;;5015817;28;20437;-82
2023/08/05 09:03:01;;;;;;;15.90;8.07;;;20.20;1.00;;;;;;5015265;28;20568;-82
2023/08/05 09:05:31;;;;;;;12.10;9.13;;;20.50;18.40;;;;;;5020293;28;20449;-82
2023/08/05 09:08:00;;;;;;;13.07;8.60;;;20.40;1.00;;;;;;5020710;28;20476;-82
2023/08/05 09:10:28;;;;;;;14.63;8.80;;;20.40;1.00;;;;;;5019962;28;20576;-80
2023/08/05 09:12:57;;;;;;;9.70;8.57;;;20.40;1.00;;;;;;5020322;28;20564;-80
2023/08/05 09:15:32;;;;;;;13.50;10.10;;;20.30;1.00;;;;;;5020341;28;20445;-81
2023/08/05 09:17:59;;;;;;;12.80;8.20;;;20.50;1.00;;;;;;5021826;28;20448;-80
2023/08/05 09:20:27;;;;;;;12.60;10.20;;;20.60;1.00;;;;;;5021288;28;20449;-80
2023/08/05 09:22:55;;;;;;;12.63;10.90;;;20.40;1.00;;;;;;5020936;28;20469;-80
2023/08/05 09:25:22;;;;;;;13.90;10.40;;;20.30;1.00;;;;;;5020480;28;20449;-82
2023/08/05 09:27:52;;;;;;;14.60;11.57;;;20.10;1.00;;;;;;5020883;28;20822;-80
2023/08/05 09:30:21;;;;;;;14.00;10.63;;;20.00;1.00;;;;;;5020758;28;20466;-80
2023/08/05 09:32:48;;;;;;;12.63;10.83;;;19.90;1.00;;;;;;5020736;28;20474;-81
2023/08/05 09:35:16;;;;;;;10.70;9.60;;;19.90;1.00;;;;;;5020577;28;20997;-81
2023/08/05 09:37:46;;;;;;;12.70;9.90;;;20.00;1.00;;;;;;5021316;28;20529;-80
2023/08/05 09:40:18;;;;;;;11.20;9.77;;;20.20;1.00;;;;;;5021949;28;20461;-82
2023/08/05 09:42:54;;;;;;;11.83;9.13;;;20.40;1.00;;;;;;5020407;28;20508;-80
2023/08/05 09:45:22;;;;;;;9.37;7.63;;;20.70;1.00;;;;;;5022012;28;20876;-81
2023/08/05 09:47:51;;;;;;;10.33;7.83;;;21.00;99.90;;;;;;5020918;28;20462;-81
2023/08/05 09:50:20;;;;;;;8.13;7.33;;;21.40;99.90;;;;;;5020594;28;20488;-81
2023/08/05 09:52:51;;;;;;;11.43;7.87;;;21.60;99.90;;;;;;5019642;28;20484;-80
2023/08/05 09:55:19;;;;;;;10.50;7.93;;;22.10;99.90;;;;;;5013258;28;20458;-80
2023/08/05 09:57:46;;;;;;;10.53;8.23;;;22.50;1.00;;;;;;5008564;28;20934;-79
2023/08/05 10:00:15;;;;;;;10.73;8.70;;;22.70;1.00;;;;;;5018081;28;20515;-81
2023/08/05 10:02:44;;;;;;;9.97;8.53;;;22.90;99.90;;;;;;5003295;28;21010;-82
2023/08/05 10:05:12;;;;;;;9.43;8.33;;;23.10;55.70;;;;;;5004164;28;20525;-81
2023/08/05 10:07:40;;;;;;;9.23;7.67;;;23.40;99.90;;;;;;5018369;28;20445;-83
2023/08/05 10:10:09;;;;;;;7.60;6.60;;;23.70;1.00;;;;;;5008840;28;20876;-80
2023/08/05 10:12:40;;;;;;;8.70;6.90;;;23.70;99.90;;;;;;4999966;28;20586;-80
2023/08/05 10:15:09;;;;;;;11.40;8.17;;;23.10;99.90;;;;;;4998001;28;20454;-80
2023/08/05 10:17:39;;;;;;;8.07;7.00;;;22.90;1.00;;;;;;5016976;28;20450;-80
2023/08/05 10:20:08;;;;;;;9.20;7.10;;;23.00;99.90;;;;;;5020802;28;20446;-83
2023/08/05 10:22:38;;;;;;;8.87;7.97;;;23.10;91.60;;;;;;5020787;28;20529;-82
2023/08/05 10:25:08;;;;;;;9.10;8.20;;;23.50;66.90;;;;;;5020982;28;20568;-84
2023/08/05 10:27:37;;;;;;;9.30;8.43;;;23.70;1.00;;;;;;5007101;28;20454;-81
2023/08/05 10:30:09;;;;;;;10.23;9.23;;;23.90;99.90;;;;;;5000987;28;20586;-81
2023/08/05 10:32:49;;;;;;;8.83;8.03;;;24.20;99.90;;;;;;5012840;28;20485;-81
2023/08/05 10:35:26;;;;;;;8.00;7.20;;;24.50;1.00;;;;;;5005304;28;20855;-81
2023/08/05 10:38:08;;;;;;;9.23;7.47;;;24.20;99.90;;;;;;5016644;28;20450;-81
2023/08/05 10:40:42;;;;;;;8.73;7.83;;;24.20;99.90;;;;;;4999773;28;20459;-80
2023/08/05 10:43:10;;;;;;;9.27;8.37;;;24.50;99.90;;;;;;5013573;28;20993;-81
2023/08/05 10:45:41;;;;;;;8.63;7.30;;;24.60;1.00;;;;;;5018977;28;20438;-82
2023/08/05 10:48:10;;;;;;;7.20;6.50;;;24.90;99.90;;;;;;5018864;28;20446;-83
2023/08/05 10:50:39;;;;;;;7.90;7.10;;;25.20;99.90;;;;;;5018512;28;21002;-81
2023/08/05 10:53:08;;;;;;;8.00;7.30;;;25.40;10.30;;;;;;5018595;28;20548;-80
2023/08/05 10:55:46;;;;;;;7.57;6.87;;;25.50;1.00;;;;;;5018944;28;20563;-82
2023/08/05 10:58:13;;;;;;;7.50;6.80;;;25.50;1.00;;;;;;5017673;28;20450;-80
2023/08/05 11:00:44;;;;;;;7.50;6.73;;;25.10;1.00;;;;;;5018738;28;20537;-79
2023/08/05 11:03:31;;;;;;;5.93;5.33;;;25.20;1.00;;;;;;5051431;22;20498;-81
2023/08/05 11:06:01;;;;;;;6.97;6.27;;;25.50;1.00;;;;;;5028302;28;20529;-84
2023/08/05 11:08:28;;;;;;;6.23;5.60;;;25.60;1.00;;;;;;5036792;28;20456;-83
2023/08/05 11:10:55;;;;;;;7.60;6.17;;;25.50;1.00;;;;;;5035355;28;21016;-82
2023/08/05 11:13:22;;;;;;;6.10;5.50;;;25.40;1.00;;;;;;5035841;28;20556;-84
2023/08/05 11:16:09;;;;;;;7.17;6.43;;;25.70;1.00;;;;;;5024488;28;20446;-81
2023/08/05 11:18:38;;;;;;;6.00;5.40;;;26.00;1.00;;;;;;5032574;28;20467;-82
2023/08/05 11:21:07;;;;;;;6.73;6.10;;;25.80;1.00;;;;;;5032608;28;20522;-83
2023/08/05 11:23:35;;;;;;;7.97;7.13;;;25.50;1.00;;;;;;5035184;28;20468;-83
2023/08/05 11:26:04;;;;;;;8.63;7.43;;;25.10;1.00;;;;;;5034606;28;20544;-83
2023/08/05 11:28:32;;;;;;;7.70;7.00;;;25.20;1.00;;;;;;5035676;28;20836;-81
2023/08/05 11:31:00;;;;;;;7.50;6.80;;;25.00;1.00;;;;;;5035689;28;20987;-81
2023/08/05 11:33:27;;;;;;;7.63;6.90;;;24.80;1.00;;;;;;5035695;28;20973;-82
2023/08/05 11:35:56;;;;;;;8.20;6.70;;;24.70;99.90;;;;;;5035483;28;20544;-83
2023/08/05 11:38:24;;;;;;;7.50;6.53;;;24.50;99.90;;;;;;5036416;28;20510;-82
2023/08/05 11:40:52;;;;;;;6.80;6.10;;;24.40;1.00;;;;;;5036319;28;20471;-83
2023/08/05 11:43:20;;;;;;;7.70;7.00;;;24.20;1.00;;;;;;5036234;28;20468;-83
2023/08/05 11:45:48;;;;;;;7.67;6.97;;;23.90;1.00;;;;;;5035491;28;20537;-84
2023/08/05 11:48:19;;;;;;;9.60;7.40;;;23.70;99.90;;;;;;5035688;28;20984;-83
2023/08/05 11:50:46;;;;;;;6.13;5.47;;;23.60;99.90;;;;;;5035828;28;20514;-83
2023/08/05 11:53:14;;;;;;;7.20;6.43;;;23.50;22.00;;;;;;5036164;28;20496;-83
2023/08/05 11:55:43;;;;;;;6.70;6.10;;;23.20;42.60;;;;;;5036215;28;20552;-82
2023/08/05 11:58:10;;;;;;;8.80;6.20;;;23.30;69.70;;;;;;5036680;28;20441;-81
2023/08/05 12:00:36;;;;;;;7.00;6.33;;;23.10;99.90;;;;;;5037003;28;20447;-81
2023/08/05 12:03:05;;;;;;;6.90;6.30;;;23.20;44.20;;;;;;5035892;28;20513;-83
2023/08/05 12:05:32;;;;;;;6.53;5.93;;;23.00;1.00;;;;;;5036606;28;20480;-82
2023/08/05 12:08:00;;;;;;;7.77;7.03;;;23.10;1.00;;;;;;5036802;28;20449;-84
2023/08/05 12:10:29;;;;;;;7.73;5.80;;;23.00;99.90;;;;;;5032725;28;20491;-84
2023/08/05 12:13:01;;;;;;;6.97;6.20;;;22.90;50.70;;;;;;5025132;28;20533;-84
2023/08/05 12:15:28;;;;;;;6.40;5.77;;;22.80;99.90;;;;;;5017519;28;21029;-82
2023/08/05 12:17:57;;;;;;;6.53;5.93;;;22.80;99.90;;;;;;5019410;28;20484;-83
2023/08/05 12:20:27;;;;;;;8.13;6.73;;;22.70;99.90;;;;;;5030233;28;20540;-84
2023/08/05 12:23:05;;;;;;;6.20;5.57;;;22.60;1.00;;;;;;5018448;28;21009;-82
2023/08/05 12:25:34;;;;;;;5.97;5.47;;;22.70;1.00;;;;;;5030704;28;20461;-81
2023/08/05 12:28:01;;;;;;;5.77;5.17;;;22.80;99.90;;;;;;5033131;28;20459;-81
2023/08/05 12:30:27;;;;;;;6.43;5.77;;;22.80;99.90;;;;;;5027983;28;20484;-83
2023/08/05 12:32:57;;;;;;;7.17;6.47;;;23.00;9.50;;;;;;5029265;28;20499;-82
2023/08/05 12:35:24;;;;;;;6.37;5.67;;;23.00;57.60;;;;;;5031264;28;20544;-80
2023/08/05 12:37:50;;;;;;;8.30;5.47;;;22.90;99.90;;;;;;5033503;28;20483;-82
2023/08/05 12:40:17;;;;;;;7.00;6.30;;;22.90;1.00;;;;;;5030012;28;20449;-83
2023/08/05 12:42:45;;;;;;;8.07;6.40;;;22.70;1.00;;;;;;5034204;28;20463;-82
2023/08/05 12:45:12;;;;;;;6.80;6.20;;;22.60;27.80;;;;;;5034141;28;20471;-79
2023/08/05 12:47:39;;;;;;;6.33;5.67;;;22.50;1.00;;;;;;5034155;28;20444;-80
2023/08/05 12:50:07;;;;;;;7.63;5.63;;;22.40;38.20;;;;;;5029363;28;20457;-83